createdAt,value
2022-08-27T00:00:59.785Z,7.43
2022-08-27T00:05:02.850Z,8.00
2022-08-27T00:09:05.503Z,7.30
2022-08-27T00:13:07.263Z,7.20
2022-08-27T00:17:09.739Z,7.37
2022-08-27T00:21:11.790Z,8.10
2022-08-27T00:25:25.741Z,7.47
2022-08-27T00:29:27.977Z,8.27
2022-08-27T00:33:31.921Z,7.67
2022-08-27T00:37:34.021Z,6.87
2022-08-27T00:41:35.849Z,7.80
2022-08-27T00:45:43.732Z,9.00
2022-08-27T00:49:51.143Z,8.57
2022-08-27T00:53:53.079Z,8.43
2022-08-27T00:58:11.837Z,9.47
2022-08-27T01:02:19.616Z,9.03
2022-08-27T01:06:21.955Z,7.47
2022-08-27T01:10:25.374Z,8.23
2022-08-27T01:14:27.325Z,7.27
2022-08-27T01:18:31.546Z,7.70
2022-08-27T01:22:55.882Z,7.63
2022-08-27T01:26:59.175Z,7.70
2022-08-27T01:31:01.292Z,8.33
2022-08-27T01:39:21.645Z,7.37
2022-08-27T01:43:25.657Z,8.83
2022-08-27T01:47:31.308Z,7.90
2022-08-27T01:51:34.564Z,8.13
2022-08-27T01:55:36.582Z,7.63
2022-08-27T01:59:39.668Z,8.07
2022-08-27T02:03:48.270Z,8.27
2022-08-27T02:07:57.396Z,8.47
2022-08-27T02:12:07.203Z,7.87
2022-08-27T02:16:15.277Z,7.57
2022-08-27T02:20:24.229Z,9.10
2022-08-27T02:24:34.362Z,8.20
2022-08-27T02:28:36.481Z,8.93
2022-08-27T02:32:38.341Z,9.53
2022-08-27T02:36:40.229Z,9.67
2022-08-27T02:40:42.020Z,10.67
2022-08-27T02:44:43.825Z,9.77
2022-08-27T02:48:45.810Z,9.70
2022-08-27T02:52:47.689Z,9.00
2022-08-27T02:56:50.545Z,8.73
2022-08-27T03:00:52.426Z,7.47
2022-08-27T03:04:54.301Z,7.07
2022-08-27T03:08:56.123Z,7.13
2022-08-27T03:12:58.185Z,6.17
2022-08-27T03:17:20.031Z,6.23
2022-08-27T03:21:24.760Z,5.37
2022-08-27T03:25:26.729Z,5.80
2022-08-27T03:29:28.527Z,5.17
2022-08-27T03:33:38.486Z,6.50
2022-08-27T03:37:40.420Z,6.37
2022-08-27T03:41:54.770Z,7.80
2022-08-27T03:46:01.922Z,9.03
2022-08-27T03:50:06.027Z,9.53
2022-08-27T03:54:07.815Z,10.17
2022-08-27T03:58:11.340Z,9.60
2022-08-27T04:02:15.693Z,11.90
2022-08-27T04:06:17.575Z,10.47
2022-08-27T04:10:19.900Z,12.77
2022-08-27T04:14:27.375Z,12.73
2022-08-27T04:18:29.379Z,14.53
2022-08-27T04:22:31.182Z,13.40
2022-08-27T04:26:33.319Z,12.37
2022-08-27T04:30:40.099Z,11.13
2022-08-27T04:34:41.878Z,10.37
2022-08-27T04:38:43.903Z,9.80
2022-08-27T04:42:45.691Z,9.53
2022-08-27T04:46:49.525Z,8.60
2022-08-27T04:50:51.592Z,7.97
2022-08-27T04:54:53.726Z,7.97
2022-08-27T04:58:55.746Z,8.50
2022-08-27T05:02:57.831Z,8.63
2022-08-27T05:07:01.405Z,8.80
2022-08-27T05:11:03.231Z,8.17
2022-08-27T05:15:06.831Z,8.50
2022-08-27T05:19:12.384Z,8.80
2022-08-27T05:23:15.568Z,8.67
2022-08-27T05:27:17.720Z,9.83
2022-08-27T05:31:21.778Z,9.53
2022-08-27T05:35:23.696Z,10.10
2022-08-27T05:39:28.422Z,11.33
2022-08-27T05:43:33.198Z,12.23
2022-08-27T05:47:37.466Z,12.83
2022-08-27T05:51:47.558Z,14.13
2022-08-27T05:55:49.637Z,14.70
2022-08-27T06:00:14.732Z,13.13
2022-08-27T06:04:18.359Z,14.43
2022-08-27T06:08:20.172Z,13.87
2022-08-27T06:12:27.988Z,15.17
2022-08-27T06:16:30.295Z,15.50
2022-08-27T06:20:32.174Z,15.33
2022-08-27T06:24:34.059Z,15.33
2022-08-27T06:28:36.099Z,15.50
2022-08-27T06:32:37.912Z,15.47
2022-08-27T06:36:41.285Z,14.43
2022-08-27T06:40:43.174Z,14.20
2022-08-27T06:44:45.015Z,13.27
2022-08-27T06:48:47.927Z,11.50
2022-08-27T06:52:49.921Z,11.57
2022-08-27T06:56:51.734Z,12.80
2022-08-27T07:00:53.527Z,12.10
2022-08-27T07:04:56.505Z,10.77
2022-08-27T07:08:58.624Z,11.60
2022-08-27T07:13:00.794Z,12.07
2022-08-27T07:17:02.938Z,11.00
2022-08-27T07:21:05.623Z,11.37
2022-08-27T07:25:13.008Z,11.33
2022-08-27T07:29:17.935Z,12.10
2022-08-27T07:33:20.054Z,11.30
2022-08-27T07:37:22.280Z,11.93
2022-08-27T07:41:25.559Z,10.77
2022-08-27T07:45:32.475Z,11.87
2022-08-27T07:49:35.445Z,12.43
2022-08-27T07:53:37.150Z,12.77
2022-08-27T07:57:39.176Z,11.90
2022-08-27T08:01:42.793Z,11.70
2022-08-27T08:05:44.751Z,14.33
2022-08-27T08:09:50.073Z,13.40
2022-08-27T08:13:52.099Z,13.20
2022-08-27T08:17:54.032Z,12.47
2022-08-27T08:22:00.391Z,11.97
2022-08-27T08:26:03.484Z,11.37
2022-08-27T08:30:05.702Z,10.90
2022-08-27T08:34:07.807Z,10.47
2022-08-27T08:38:09.814Z,10.13
2022-08-27T08:42:45.074Z,10.03
2022-08-27T08:47:00.071Z,10.70
2022-08-27T08:51:06.004Z,10.53
2022-08-27T08:55:32.488Z,9.73
2022-08-27T08:59:43.589Z,9.50
2022-08-27T09:03:53.720Z,8.20
2022-08-27T09:12:34.149Z,8.00
2022-08-27T09:16:39.456Z,8.27
2022-08-27T09:20:44.734Z,6.83
2022-08-27T09:25:20.358Z,7.70
2022-08-27T09:29:27.950Z,7.90
2022-08-27T09:33:44.646Z,8.03
2022-08-27T09:37:55.033Z,7.00
2022-08-27T09:41:58.074Z,6.50
2022-08-27T09:46:02.071Z,6.33
2022-08-27T09:50:07.929Z,5.60
2022-08-27T09:54:09.875Z,5.57
2022-08-27T09:58:21.688Z,5.83
2022-08-27T10:02:25.719Z,6.13
2022-08-27T10:06:31.590Z,5.30
2022-08-27T10:10:53.508Z,5.63
2022-08-27T10:14:59.613Z,4.67
2022-08-27T10:19:39.071Z,5.17
2022-08-27T10:24:12.002Z,6.23
2022-08-27T10:29:03.559Z,6.50
2022-08-27T10:33:42.456Z,5.90
2022-08-27T10:38:07.608Z,5.80
2022-08-27T10:42:35.595Z,5.83
2022-08-27T10:47:03.046Z,4.93
2022-08-27T10:51:26.717Z,6.77
2022-08-27T10:55:38.815Z,6.13
2022-08-27T11:00:12.393Z,5.27
2022-08-27T11:04:18.648Z,3.17
2022-08-27T11:08:40.928Z,2.70
2022-08-27T11:12:45.076Z,2.50
2022-08-27T11:16:54.946Z,2.40
2022-08-27T11:21:30.267Z,2.60
2022-08-27T11:25:34.606Z,3.37
2022-08-27T11:30:01.326Z,3.60
2022-08-27T11:34:34.687Z,2.93
2022-08-27T11:38:55.097Z,3.07
2022-08-27T11:43:00.921Z,3.47
2022-08-27T11:47:11.781Z,3.33
2022-08-27T11:51:26.113Z,4.53
2022-08-27T11:55:39.000Z,4.07
2022-08-27T11:59:43.676Z,3.90
2022-08-27T12:03:45.587Z,4.33
2022-08-27T12:07:51.094Z,4.43
2022-08-27T12:12:11.683Z,4.67
2022-08-27T12:16:56.762Z,4.63
2022-08-27T12:21:46.680Z,4.87
2022-08-27T12:26:00.442Z,4.33
2022-08-27T12:30:22.096Z,4.17
2022-08-27T12:34:27.253Z,4.50
2022-08-27T12:38:32.005Z,4.53
2022-08-27T12:42:33.795Z,4.23
2022-08-27T12:46:54.015Z,4.90
2022-08-27T12:51:00.831Z,5.67
2022-08-27T12:55:30.335Z,5.97
2022-08-27T12:59:41.700Z,5.60
2022-08-27T13:03:49.884Z,5.63
2022-08-27T13:07:53.224Z,6.43
2022-08-27T13:11:56.744Z,6.77
2022-08-27T13:16:01.826Z,6.83
2022-08-27T13:20:03.984Z,7.57
2022-08-27T13:24:06.674Z,7.50
2022-08-27T13:28:18.309Z,7.47
2022-08-27T13:32:20.173Z,8.60
2022-08-27T13:36:35.447Z,8.27
2022-08-27T13:41:02.230Z,8.00
2022-08-27T13:45:09.663Z,9.13
2022-08-27T13:49:19.593Z,9.00
2022-08-27T13:53:48.834Z,8.83
2022-08-27T13:57:51.889Z,8.80
2022-08-27T14:02:11.975Z,9.10
2022-08-27T14:06:35.379Z,10.03
2022-08-27T14:10:40.986Z,9.67
2022-08-27T14:14:42.858Z,10.10
2022-08-27T14:19:05.098Z,9.73
2022-08-27T14:23:06.845Z,10.13
2022-08-27T14:27:10.740Z,9.07
2022-08-27T14:31:13.924Z,9.70
2022-08-27T14:35:16.673Z,8.07
2022-08-27T14:39:27.309Z,7.27
2022-08-27T14:43:29.181Z,6.33
2022-08-27T14:47:33.762Z,7.23
2022-08-27T14:51:37.737Z,6.27
2022-08-27T14:55:39.892Z,6.33
2022-08-27T14:59:41.717Z,6.13
2022-08-27T15:03:47.607Z,5.10
2022-08-27T15:07:49.467Z,5.60
2022-08-27T15:11:52.060Z,4.87
2022-08-27T15:15:53.885Z,4.70
2022-08-27T15:19:55.794Z,4.53
2022-08-27T15:24:04.786Z,4.10
2022-08-27T15:28:07.044Z,5.13
2022-08-27T15:32:10.959Z,5.63
2022-08-27T15:36:15.797Z,4.87
2022-08-27T15:40:18.614Z,6.30
2022-08-27T15:44:21.086Z,5.97
2022-08-27T15:48:22.913Z,6.40
2022-08-27T15:52:24.804Z,6.57
2022-08-27T15:56:27.992Z,6.57
2022-08-27T16:00:33.859Z,7.70
2022-08-27T16:04:35.699Z,7.50
2022-08-27T16:08:42.166Z,7.20
2022-08-27T16:12:44.562Z,7.27
2022-08-27T16:16:46.566Z,7.70
2022-08-27T16:20:53.704Z,8.13
2022-08-27T16:24:55.585Z,9.40
2022-08-27T16:28:59.868Z,8.20
2022-08-27T16:33:10.350Z,8.37
2022-08-27T16:37:14.850Z,9.90
2022-08-27T16:41:23.207Z,8.30
2022-08-27T16:45:25.452Z,9.00
2022-08-27T16:49:50.029Z,9.37
2022-08-27T16:53:52.017Z,9.47
2022-08-27T16:57:54.372Z,9.43
2022-08-27T17:01:57.139Z,9.33
2022-08-27T17:06:04.831Z,9.83
2022-08-27T17:10:16.822Z,9.40
2022-08-27T17:14:18.684Z,9.57
2022-08-27T17:18:21.716Z,9.47
2022-08-27T17:22:25.383Z,9.30
2022-08-27T17:26:27.802Z,8.40
2022-08-27T17:30:33.866Z,8.63
2022-08-27T17:34:35.839Z,10.10
2022-08-27T17:38:38.876Z,8.50
2022-08-27T17:42:40.754Z,11.40
2022-08-27T17:46:42.968Z,11.00
2022-08-27T17:50:44.841Z,10.57
2022-08-27T17:54:51.274Z,10.80
2022-08-27T17:58:55.819Z,10.50
2022-08-27T18:03:00.745Z,11.20
2022-08-27T18:07:02.724Z,10.50
2022-08-27T18:11:05.357Z,10.97
2022-08-27T18:15:26.866Z,10.63
2022-08-27T18:19:31.918Z,10.53
2022-08-27T18:23:34.031Z,10.50
2022-08-27T18:27:36.297Z,9.87
2022-08-27T18:31:38.153Z,9.17
2022-08-27T18:35:40.117Z,8.97
2022-08-27T18:39:42.128Z,12.80
2022-08-27T18:43:44.048Z,13.50
2022-08-27T18:47:45.942Z,8.90
2022-08-27T18:51:52.713Z,8.40
2022-08-27T18:55:54.733Z,8.17
2022-08-27T18:59:56.875Z,7.30
2022-08-27T19:03:58.855Z,7.23
2022-08-27T19:08:00.690Z,7.37
2022-08-27T19:12:03.691Z,6.93
2022-08-27T19:16:17.686Z,6.83
2022-08-27T19:20:20.149Z,7.03
2022-08-27T19:24:22.221Z,6.40
2022-08-27T19:28:27.175Z,7.40
2022-08-27T19:32:29.927Z,6.67
2022-08-27T19:36:33.869Z,5.63
2022-08-27T19:40:35.704Z,5.67
2022-08-27T19:44:37.683Z,5.60
2022-08-27T19:48:39.713Z,5.23
2022-08-27T19:52:44.208Z,5.50
2022-08-27T19:56:46.036Z,5.60
2022-08-27T20:00:55.970Z,4.90
2022-08-27T20:05:16.964Z,5.50
2022-08-27T20:09:21.793Z,5.80
2022-08-27T20:13:23.590Z,6.00
2022-08-27T20:17:25.433Z,5.87
2022-08-27T20:21:28.446Z,5.10
2022-08-27T20:25:30.508Z,5.50
2022-08-27T20:29:33.065Z,5.73
2022-08-27T20:33:34.931Z,5.53
2022-08-27T20:37:41.971Z,5.27
2022-08-27T20:41:44.322Z,5.63
2022-08-27T20:45:48.065Z,5.20
2022-08-27T20:49:50.089Z,4.90
2022-08-27T20:53:52.212Z,4.70
2022-08-27T20:58:12.307Z,4.60
2022-08-27T21:02:15.599Z,4.53
2022-08-27T21:06:33.487Z,3.57
2022-08-27T21:10:36.302Z,3.70
2022-08-27T21:14:38.436Z,3.00
2022-08-27T21:18:40.286Z,2.60
2022-08-27T21:22:44.823Z,2.80
2022-08-27T21:26:47.406Z,3.17
2022-08-27T21:30:49.218Z,3.63
2022-08-27T21:34:51.151Z,3.90
2022-08-27T21:38:53.007Z,4.13
2022-08-27T21:42:54.941Z,4.23
2022-08-27T21:47:01.750Z,4.60
2022-08-27T21:51:11.285Z,4.40
2022-08-27T21:55:13.574Z,4.73
2022-08-27T21:59:15.504Z,4.47
2022-08-27T22:03:19.782Z,4.40
2022-08-27T22:07:22.659Z,4.40
2022-08-27T22:11:25.658Z,4.90
2022-08-27T22:15:27.618Z,4.33
2022-08-27T22:19:29.775Z,4.50
2022-08-27T22:23:32.865Z,5.00
2022-08-27T22:27:35.801Z,4.27
2022-08-27T22:31:39.573Z,4.47
2022-08-27T22:35:41.551Z,5.00
2022-08-27T22:39:43.395Z,4.53
2022-08-27T22:43:46.419Z,4.70
2022-08-27T22:47:48.322Z,4.20
2022-08-27T22:51:50.554Z,4.67
2022-08-27T22:55:52.385Z,4.77
2022-08-27T22:59:54.146Z,4.93
2022-08-27T23:03:56.075Z,5.20
2022-08-27T23:07:58.871Z,6.17
2022-08-27T23:12:00.810Z,6.27
2022-08-27T23:16:03.373Z,6.00
2022-08-27T23:20:06.694Z,5.60
2022-08-27T23:24:08.470Z,5.50
2022-08-27T23:28:14.831Z,5.90
2022-08-27T23:32:17.408Z,5.70
2022-08-27T23:36:19.545Z,5.53
2022-08-27T23:40:21.945Z,5.50
2022-08-27T23:44:24.082Z,5.13
2022-08-27T23:48:26.025Z,5.60
2022-08-27T23:52:27.804Z,5.10
2022-08-27T23:56:30.258Z,5.37
